createdAt,value
2018-08-31T00:07:51.970Z,12.69
2018-08-31T00:17:51.946Z,12.39
2018-08-31T00:27:51.981Z,12.37
2018-08-31T00:37:52.010Z,12.16
2018-08-31T00:47:51.969Z,12.21
2018-08-31T00:57:52.084Z,12.02
2018-08-31T01:07:52.049Z,11.83
2018-08-31T01:17:52.114Z,11.46
2018-08-31T01:27:52.036Z,11.21
2018-08-31T01:37:52.047Z,11.03
2018-08-31T01:47:52.100Z,11.13
2018-08-31T01:57:52.073Z,11.24
2018-08-31T02:07:52.075Z,11.28
2018-08-31T02:17:52.079Z,11.16
2018-08-31T02:27:52.072Z,11.03
2018-08-31T02:37:52.089Z,11.1
2018-08-31T02:47:52.130Z,11.16
2018-08-31T02:57:52.153Z,11.09
2018-08-31T03:07:52.097Z,11.03
2018-08-31T03:17:52.121Z,11.29
2018-08-31T03:27:52.109Z,11.29
2018-08-31T03:37:52.112Z,11.19
2018-08-31T03:47:52.146Z,11.21
2018-08-31T03:57:52.222Z,11.06
2018-08-31T04:07:52.178Z,11.17
2018-08-31T04:17:52.195Z,11.07
2018-08-31T04:27:52.175Z,11.01
2018-08-31T04:37:52.172Z,10.98
2018-08-31T04:47:52.224Z,11.06
2018-08-31T04:57:52.214Z,11.11
2018-08-31T05:07:52.236Z,11.5
2018-08-31T05:17:52.208Z,11.59
2018-08-31T05:27:52.254Z,11.65
2018-08-31T05:37:52.280Z,11.89
2018-08-31T05:47:52.284Z,12.26
2018-08-31T05:57:52.251Z,12.59
2018-08-31T06:08:02.271Z,12.93
2018-08-31T06:17:52.265Z,13.51
2018-08-31T06:27:52.347Z,13.92
2018-08-31T06:37:52.323Z,14.49
2018-08-31T06:47:52.344Z,15.12
2018-08-31T06:57:52.329Z,15.64
2018-08-31T07:07:52.353Z,16.41
2018-08-31T07:17:52.328Z,16.74
2018-08-31T07:27:52.420Z,17.23
2018-08-31T07:37:52.413Z,17.69
2018-08-31T07:47:57.939Z,18.36
2018-08-31T07:57:52.351Z,18.74
2018-08-31T08:07:52.342Z,19.84
2018-08-31T08:17:52.419Z,22.78
2018-08-31T08:28:16.509Z,23.77
2018-08-31T08:38:18.041Z,22.2
2018-08-31T08:48:20.478Z,21.79
2018-08-31T08:58:29.407Z,21.3
2018-08-31T09:07:52.338Z,20.93
2018-08-31T09:17:52.396Z,20.66
2018-08-31T09:27:52.432Z,20.69
2018-08-31T09:37:52.384Z,20.83
2018-08-31T09:47:52.361Z,21.38
2018-08-31T09:57:52.407Z,21.63
2018-08-31T10:07:52.376Z,21.85
2018-08-31T10:17:52.447Z,22.2
2018-08-31T10:27:52.376Z,21.78
2018-08-31T10:37:52.363Z,22.02
2018-08-31T10:47:52.390Z,22.28
2018-08-31T10:57:52.532Z,22.56
2018-08-31T11:07:52.366Z,22.74
2018-08-31T11:17:52.388Z,22.68
2018-08-31T11:27:52.553Z,23.02
2018-08-31T11:37:52.428Z,22.65
2018-08-31T11:47:52.526Z,22.25
2018-08-31T11:57:52.430Z,22.22
2018-08-31T12:07:52.451Z,22.86
2018-08-31T12:17:52.401Z,23.08
2018-08-31T12:27:52.447Z,22.69
2018-08-31T12:37:52.438Z,22.52
2018-08-31T12:47:52.430Z,23.15
2018-08-31T12:57:52.398Z,23.65
2018-08-31T13:07:52.400Z,23.09
2018-08-31T13:17:52.409Z,22.12
2018-08-31T13:27:52.439Z,21.56
2018-08-31T13:37:52.484Z,21.69
2018-08-31T13:47:52.432Z,21.2
2018-08-31T13:57:52.447Z,21.09
2018-08-31T14:07:52.474Z,21.16
2018-08-31T14:17:52.537Z,21.09
2018-08-31T14:27:52.623Z,21.23
2018-08-31T14:37:52.408Z,21.46
2018-08-31T14:47:52.537Z,21.74
2018-08-31T14:57:52.433Z,22.01
2018-08-31T15:07:52.583Z,22.31
2018-08-31T15:17:52.545Z,22.27
2018-08-31T15:27:52.444Z,22.16
2018-08-31T15:37:52.460Z,22.35
2018-08-31T15:47:52.482Z,22.65
2018-08-31T15:57:52.428Z,22.44
2018-08-31T16:07:52.495Z,22.57
2018-08-31T16:17:52.446Z,21.5
2018-08-31T16:27:52.482Z,20.25
2018-08-31T16:37:52.461Z,19.38
2018-08-31T16:47:52.683Z,18.82
2018-08-31T16:57:52.839Z,18.44
2018-08-31T17:07:52.778Z,18.1
2018-08-31T17:17:52.456Z,17.76
2018-08-31T17:27:52.550Z,17.5
2018-08-31T17:37:52.438Z,17.44
2018-08-31T17:47:52.436Z,17.28
2018-08-31T17:57:52.623Z,17.41
2018-08-31T18:07:52.426Z,17.29
2018-08-31T18:17:52.466Z,17.23
2018-08-31T18:27:52.528Z,16.93
2018-08-31T18:37:52.516Z,16.93
2018-08-31T18:47:52.638Z,16.7
2018-08-31T18:57:52.539Z,16.55
2018-08-31T19:07:52.483Z,16.53
2018-08-31T19:17:52.492Z,16.41
2018-08-31T19:27:52.480Z,16.44
2018-08-31T19:37:52.511Z,16.45
2018-08-31T19:47:52.795Z,16.34
2018-08-31T19:57:52.486Z,16.31
2018-08-31T20:07:52.477Z,16.18
2018-08-31T20:17:52.543Z,16.26
2018-08-31T20:27:52.473Z,16.18
2018-08-31T20:37:52.884Z,16.01
2018-08-31T20:47:53.558Z,16.01
2018-08-31T20:57:52.754Z,15.97
2018-08-31T21:07:52.616Z,15.96
2018-08-31T21:17:52.506Z,15.89
2018-08-31T21:27:52.654Z,15.82
2018-08-31T21:37:52.598Z,15.75
2018-08-31T21:47:52.626Z,15.72
2018-08-31T21:57:52.482Z,15.6
2018-08-31T22:18:38.341Z,15.57
2018-08-31T22:19:20.174Z,15.41
2018-08-31T22:29:18.867Z,15.33
2018-08-31T22:39:19.833Z,15.02
2018-08-31T22:49:19.893Z,14.88
2018-08-31T22:59:18.804Z,14.75
2018-08-31T23:09:18.947Z,14.72
2018-08-31T23:19:18.806Z,14.62
2018-08-31T23:29:25.158Z,14.61
2018-08-31T23:39:24.290Z,14.39
2018-08-31T23:49:18.998Z,14.12
2018-08-31T23:59:18.929Z,13.95
